sensor_id;sensor_type;location;lat;lon;timestamp;P1;durP1;ratioP1;P2;durP2;ratioP2
17504;SDS011;8870;50.950;11.762;2023-08-06T00:00:17;0.82;;;0.40;;
17504;SDS011;8870;50.950;11.762;2023-08-06T00:05:50;0.32;;;0.30;;
17504;SDS011;8870;50.950;11.762;2023-08-06T00:11:09;0.77;;;0.50;;
17504;SDS011;8870;50.950;11.762;2023-08-06T00:16:39;1.50;;;0.40;;
17504;SDS011;8870;50.950;11.762;2023-08-06T00:22:00;0.50;;;0.50;;
17504;SDS011;8870;50.950;11.762;2023-08-06T00:27:31;0.55;;;0.40;;
17504;SDS011;8870;50.950;11.762;2023-08-06T00:32:51;1.67;;;0.40;;
17504;SDS011;8870;50.950;11.762;2023-08-06T00:38:24;0.70;;;0.60;;
17504;SDS011;8870;50.950;11.762;2023-08-06T00:43:43;0.73;;;0.35;;
17504;SDS011;8870;50.950;11.762;2023-08-06T00:49:14;0.95;;;0.50;;
17504;SDS011;8870;50.950;11.762;2023-08-06T00:54:51;0.63;;;0.40;;
17504;SDS011;8870;50.950;11.762;2023-08-06T01:00:10;1.08;;;0.60;;
17504;SDS011;8870;50.950;11.762;2023-08-06T01:05:43;2.28;;;0.60;;
17504;SDS011;8870;50.950;11.762;2023-08-06T01:11:08;0.63;;;0.50;;
17504;SDS011;8870;50.950;11.762;2023-08-06T01:16:48;0.80;;;0.50;;
17504;SDS011;8870;50.950;11.762;2023-08-06T01:22:10;0.77;;;0.40;;
17504;SDS011;8870;50.950;11.762;2023-08-06T01:27:43;0.98;;;0.60;;
17504;SDS011;8870;50.950;11.762;2023-08-06T01:33:04;0.73;;;0.50;;
17504;SDS011;8870;50.950;11.762;2023-08-06T01:38:38;0.85;;;0.40;;
17504;SDS011;8870;50.950;11.762;2023-08-06T01:43:57;1.15;;;0.50;;
17504;SDS011;8870;50.950;11.762;2023-08-06T01:49:27;0.90;;;0.50;;
17504;SDS011;8870;50.950;11.762;2023-08-06T01:55:02;0.50;;;0.50;;
17504;SDS011;8870;50.950;11.762;2023-08-06T02:00:22;1.30;;;0.55;;
17504;SDS011;8870;50.950;11.762;2023-08-06T02:05:52;0.43;;;0.40;;
17504;SDS011;8870;50.950;11.762;2023-08-06T02:11:13;0.55;;;0.50;;
17504;SDS011;8870;50.950;11.762;2023-08-06T02:16:45;0.68;;;0.50;;
17504;SDS011;8870;50.950;11.762;2023-08-06T02:22:04;2.28;;;0.40;;
17504;SDS011;8870;50.950;11.762;2023-08-06T02:27:39;0.65;;;0.40;;
17504;SDS011;8870;50.950;11.762;2023-08-06T02:32:58;0.50;;;0.50;;
17504;SDS011;8870;50.950;11.762;2023-08-06T02:38:29;0.57;;;0.40;;
17504;SDS011;8870;50.950;11.762;2023-08-06T02:43:49;0.85;;;0.50;;
17504;SDS011;8870;50.950;11.762;2023-08-06T02:49:21;0.40;;;0.40;;
17504;SDS011;8870;50.950;11.762;2023-08-06T02:54:39;0.50;;;0.50;;
17504;SDS011;8870;50.950;11.762;2023-08-06T03:00:15;1.67;;;0.60;;
17504;SDS011;8870;50.950;11.762;2023-08-06T03:05:36;0.65;;;0.50;;
17504;SDS011;8870;50.950;11.762;2023-08-06T03:11:27;2.30;;;0.65;;
17504;SDS011;8870;50.950;11.762;2023-08-06T03:16:51;1.38;;;0.60;;
17504;SDS011;8870;50.950;11.762;2023-08-06T03:22:22;1.17;;;0.77;;
17504;SDS011;8870;50.950;11.762;2023-08-06T03:27:41;0.57;;;0.50;;
17504;SDS011;8870;50.950;11.762;2023-08-06T03:33:15;1.20;;;0.55;;
17504;SDS011;8870;50.950;11.762;2023-08-06T03:38:35;0.88;;;0.60;;
17504;SDS011;8870;50.950;11.762;2023-08-06T03:44:08;0.65;;;0.50;;
17504;SDS011;8870;50.950;11.762;2023-08-06T03:49:35;2.30;;;0.60;;
17504;SDS011;8870;50.950;11.762;2023-08-06T03:55:08;0.95;;;0.55;;
17504;SDS011;8870;50.950;11.762;2023-08-06T04:00:26;1.88;;;0.60;;
17504;SDS011;8870;50.950;11.762;2023-08-06T04:06:01;0.50;;;0.50;;
17504;SDS011;8870;50.950;11.762;2023-08-06T04:11:20;0.50;;;0.50;;
17504;SDS011;8870;50.950;11.762;2023-08-06T04:16:51;1.50;;;0.50;;
17504;SDS011;8870;50.950;11.762;2023-08-06T04:22:11;2.97;;;0.60;;
17504;SDS011;8870;50.950;11.762;2023-08-06T04:27:43;1.10;;;0.50;;
17504;SDS011;8870;50.950;11.762;2023-08-06T04:33:01;0.93;;;0.50;;
17504;SDS011;8870;50.950;11.762;2023-08-06T04:38:35;1.20;;;0.55;;
17504;SDS011;8870;50.950;11.762;2023-08-06T04:43:56;1.50;;;0.63;;
17504;SDS011;8870;50.950;11.762;2023-08-06T04:49:29;1.15;;;0.73;;
17504;SDS011;8870;50.950;11.762;2023-08-06T04:54:49;1.33;;;0.60;;
17504;SDS011;8870;50.950;11.762;2023-08-06T05:00:21;0.52;;;0.52;;
17504;SDS011;8870;50.950;11.762;2023-08-06T05:05:39;2.42;;;0.70;;
17504;SDS011;8870;50.950;11.762;2023-08-06T05:11:00;2.17;;;0.63;;
17504;SDS011;8870;50.950;11.762;2023-08-06T05:16:32;1.02;;;0.80;;
17504;SDS011;8870;50.950;11.762;2023-08-06T05:21:50;1.38;;;0.90;;
17504;SDS011;8870;50.950;11.762;2023-08-06T05:27:25;0.68;;;0.68;;
17504;SDS011;8870;50.950;11.762;2023-08-06T05:32:44;1.55;;;0.77;;
17504;SDS011;8870;50.950;11.762;2023-08-06T05:38:15;2.00;;;0.70;;
17504;SDS011;8870;50.950;11.762;2023-08-06T05:43:36;0.80;;;0.80;;
17504;SDS011;8870;50.950;11.762;2023-08-06T05:49:08;1.50;;;0.70;;
17504;SDS011;8870;50.950;11.762;2023-08-06T05:54:39;2.00;;;0.70;;
17504;SDS011;8870;50.950;11.762;2023-08-06T06:00:13;1.20;;;0.80;;
17504;SDS011;8870;50.950;11.762;2023-08-06T06:05:31;2.33;;;1.00;;
17504;SDS011;8870;50.950;11.762;2023-08-06T06:11:03;3.70;;;0.80;;
17504;SDS011;8870;50.950;11.762;2023-08-06T06:16:23;2.30;;;0.80;;
17504;SDS011;8870;50.950;11.762;2023-08-06T06:21:55;1.13;;;0.90;;
17504;SDS011;8870;50.950;11.762;2023-08-06T06:27:14;3.30;;;0.90;;
17504;SDS011;8870;50.950;11.762;2023-08-06T06:32:47;1.48;;;0.90;;
17504;SDS011;8870;50.950;11.762;2023-08-06T06:38:06;1.80;;;0.88;;
17504;SDS011;8870;50.950;11.762;2023-08-06T06:43:37;1.25;;;0.90;;
17504;SDS011;8870;50.950;11.762;2023-08-06T06:48:58;1.20;;;0.88;;
17504;SDS011;8870;50.950;11.762;2023-08-06T06:54:30;2.60;;;0.98;;
17504;SDS011;8870;50.950;11.762;2023-08-06T06:59:48;1.67;;;0.75;;
17504;SDS011;8870;50.950;11.762;2023-08-06T07:05:23;1.55;;;0.70;;
17504;SDS011;8870;50.950;11.762;2023-08-06T07:10:42;0.90;;;0.80;;
17504;SDS011;8870;50.950;11.762;2023-08-06T07:16:14;1.17;;;0.80;;
17504;SDS011;8870;50.950;11.762;2023-08-06T07:21:35;1.85;;;0.77;;
17504;SDS011;8870;50.950;11.762;2023-08-06T07:27:07;1.65;;;0.70;;
17504;SDS011;8870;50.950;11.762;2023-08-06T07:32:25;0.80;;;0.68;;
17504;SDS011;8870;50.950;11.762;2023-08-06T07:37:59;1.20;;;0.60;;
17504;SDS011;8870;50.950;11.762;2023-08-06T07:43:18;2.22;;;0.80;;
17504;SDS011;8870;50.950;11.762;2023-08-06T07:48:50;1.38;;;0.70;;
17504;SDS011;8870;50.950;11.762;2023-08-06T07:54:23;1.30;;;0.75;;
17504;SDS011;8870;50.950;11.762;2023-08-06T07:59:43;1.00;;;0.80;;
17504;SDS011;8870;50.950;11.762;2023-08-06T08:05:19;0.80;;;0.70;;
17504;SDS011;8870;50.950;11.762;2023-08-06T08:10:39;0.70;;;0.68;;
17504;SDS011;8870;50.950;11.762;2023-08-06T08:16:11;0.77;;;0.75;;
17504;SDS011;8870;50.950;11.762;2023-08-06T08:21:29;2.47;;;0.90;;
17504;SDS011;8870;50.950;11.762;2023-08-06T08:27:02;0.90;;;0.70;;
17504;SDS011;8870;50.950;11.762;2023-08-06T08:32:21;2.17;;;0.80;;
17504;SDS011;8870;50.950;11.762;2023-08-06T08:37:52;1.55;;;0.80;;
17504;SDS011;8870;50.950;11.762;2023-08-06T08:43:13;1.35;;;0.90;;
17504;SDS011;8870;50.950;11.762;2023-08-06T08:48:45;0.80;;;0.80;;
17504;SDS011;8870;50.950;11.762;2023-08-06T08:54:04;1.17;;;0.70;;
17504;SDS011;8870;50.950;11.762;2023-08-06T08:59:40;1.23;;;0.75;;
17504;SDS011;8870;50.950;11.762;2023-08-06T09:04:59;1.30;;;0.70;;
17504;SDS011;8870;50.950;11.762;2023-08-06T09:10:31;1.88;;;0.80;;
17504;SDS011;8870;50.950;11.762;2023-08-06T09:15:54;1.42;;;0.73;;
17504;SDS011;8870;50.950;11.762;2023-08-06T09:21:25;1.40;;;0.73;;
17504;SDS011;8870;50.950;11.762;2023-08-06T09:26:46;1.05;;;0.60;;
17504;SDS011;8870;50.950;11.762;2023-08-06T09:32:19;1.38;;;0.70;;
17504;SDS011;8870;50.950;11.762;2023-08-06T09:43:13;1.45;;;0.65;;
17504;SDS011;8870;50.950;11.762;2023-08-06T09:48:33;0.65;;;0.60;;
17504;SDS011;8870;50.950;11.762;2023-08-06T09:54:05;0.70;;;0.70;;
17504;SDS011;8870;50.950;11.762;2023-08-06T09:59:35;1.33;;;0.70;;
17504;SDS011;8870;50.950;11.762;2023-08-06T10:05:12;0.57;;;0.50;;
17504;SDS011;8870;50.950;11.762;2023-08-06T10:10:30;1.27;;;0.60;;
17504;SDS011;8870;50.950;11.762;2023-08-06T10:16:03;0.60;;;0.57;;
17504;SDS011;8870;50.950;11.762;2023-08-06T10:21:26;0.60;;;0.60;;
17504;SDS011;8870;50.950;11.762;2023-08-06T10:26:57;0.77;;;0.60;;
17504;SDS011;8870;50.950;11.762;2023-08-06T10:32:16;0.60;;;0.60;;
17504;SDS011;8870;50.950;11.762;2023-08-06T10:37:49;0.50;;;0.50;;
17504;SDS011;8870;50.950;11.762;2023-08-06T10:43:08;0.50;;;0.50;;
17504;SDS011;8870;50.950;11.762;2023-08-06T10:48:56;0.63;;;0.50;;
17504;SDS011;8870;50.950;11.762;2023-08-06T10:54:33;0.73;;;0.50;;
17504;SDS011;8870;50.950;11.762;2023-08-06T10:59:51;0.43;;;0.43;;
17504;SDS011;8870;50.950;11.762;2023-08-06T11:05:31;0.70;;;0.40;;
17504;SDS011;8870;50.950;11.762;2023-08-06T11:10:52;1.95;;;0.50;;
17504;SDS011;8870;50.950;11.762;2023-08-06T11:16:23;1.02;;;0.43;;
17504;SDS011;8870;50.950;11.762;2023-08-06T11:21:42;0.82;;;0.40;;
17504;SDS011;8870;50.950;11.762;2023-08-06T11:27:17;1.42;;;0.50;;
17504;SDS011;8870;50.950;11.762;2023-08-06T11:32:44;0.73;;;0.60;;
17504;SDS011;8870;50.950;11.762;2023-08-06T11:38:15;1.35;;;0.60;;
17504;SDS011;8870;50.950;11.762;2023-08-06T11:43:37;0.68;;;0.50;;
17504;SDS011;8870;50.950;11.762;2023-08-06T11:49:08;0.85;;;0.60;;
17504;SDS011;8870;50.950;11.762;2023-08-06T11:54:30;0.70;;;0.50;;
17504;SDS011;8870;50.950;11.762;2023-08-06T12:00:06;0.40;;;0.40;;
17504;SDS011;8870;50.950;11.762;2023-08-06T12:05:29;0.40;;;0.40;;
17504;SDS011;8870;50.950;11.762;2023-08-06T12:11:02;1.73;;;0.50;;
17504;SDS011;8870;50.950;11.762;2023-08-06T12:16:24;0.40;;;0.40;;
17504;SDS011;8870;50.950;11.762;2023-08-06T12:21:55;1.83;;;0.40;;
17504;SDS011;8870;50.950;11.762;2023-08-06T12:27:13;0.50;;;0.50;;
17504;SDS011;8870;50.950;11.762;2023-08-06T12:32:49;0.90;;;0.43;;
17504;SDS011;8870;50.950;11.762;2023-08-06T12:38:07;0.40;;;0.40;;
17504;SDS011;8870;50.950;11.762;2023-08-06T12:43:38;3.53;;;0.60;;
17504;SDS011;8870;50.950;11.762;2023-08-06T12:48:59;0.68;;;0.50;;
17504;SDS011;8870;50.950;11.762;2023-08-06T12:54:30;1.35;;;0.60;;
17504;SDS011;8870;50.950;11.762;2023-08-06T12:59:51;0.55;;;0.50;;
17504;SDS011;8870;50.950;11.762;2023-08-06T13:05:25;1.88;;;0.70;;
17504;SDS011;8870;50.950;11.762;2023-08-06T13:10:43;3.35;;;0.73;;
17504;SDS011;8870;50.950;11.762;2023-08-06T13:16:14;6.80;;;1.30;;
17504;SDS011;8870;50.950;11.762;2023-08-06T13:21:59;2.60;;;0.85;;
17504;SDS011;8870;50.950;11.762;2023-08-06T13:27:31;2.08;;;1.17;;
17504;SDS011;8870;50.950;11.762;2023-08-06T13:32:49;1.52;;;0.70;;
17504;SDS011;8870;50.950;11.762;2023-08-06T13:38:23;1.48;;;0.73;;
17504;SDS011;8870;50.950;11.762;2023-08-06T13:43:43;1.50;;;0.80;;
17504;SDS011;8870;50.950;11.762;2023-08-06T13:49:14;0.50;;;0.45;;
17504;SDS011;8870;50.950;11.762;2023-08-06T13:54:48;1.02;;;0.80;;
17504;SDS011;8870;50.950;11.762;2023-08-06T14:00:07;0.75;;;0.63;;
17504;SDS011;8870;50.950;11.762;2023-08-06T14:05:41;1.00;;;0.70;;
17504;SDS011;8870;50.950;11.762;2023-08-06T14:11:02;0.60;;;0.50;;
17504;SDS011;8870;50.950;11.762;2023-08-06T14:16:33;0.63;;;0.50;;
17504;SDS011;8870;50.950;11.762;2023-08-06T14:21:51;1.45;;;0.95;;
17504;SDS011;8870;50.950;11.762;2023-08-06T14:27:25;3.65;;;0.80;;
17504;SDS011;8870;50.950;11.762;2023-08-06T14:32:43;1.00;;;0.60;;
17504;SDS011;8870;50.950;11.762;2023-08-06T14:38:31;0.88;;;0.68;;
17504;SDS011;8870;50.950;11.762;2023-08-06T14:44:09;1.90;;;0.90;;
17504;SDS011;8870;50.950;11.762;2023-08-06T14:49:40;1.27;;;1.10;;
17504;SDS011;8870;50.950;11.762;2023-08-06T14:55:00;1.08;;;0.70;;
17504;SDS011;8870;50.950;11.762;2023-08-06T15:00:34;1.23;;;0.60;;
17504;SDS011;8870;50.950;11.762;2023-08-06T15:05:53;0.63;;;0.60;;
17504;SDS011;8870;50.950;11.762;2023-08-06T15:11:24;1.08;;;0.80;;
17504;SDS011;8870;50.950;11.762;2023-08-06T15:16:46;1.17;;;1.00;;
17504;SDS011;8870;50.950;11.762;2023-08-06T15:22:20;1.75;;;0.80;;
17504;SDS011;8870;50.950;11.762;2023-08-06T15:27:38;1.58;;;0.70;;
17504;SDS011;8870;50.950;11.762;2023-08-06T15:33:13;2.17;;;0.60;;
17504;SDS011;8870;50.950;11.762;2023-08-06T15:38:31;2.10;;;0.68;;
17504;SDS011;8870;50.950;11.762;2023-08-06T15:44:03;1.75;;;0.40;;
17504;SDS011;8870;50.950;11.762;2023-08-06T15:49:24;0.45;;;0.40;;
17504;SDS011;8870;50.950;11.762;2023-08-06T15:54:55;0.98;;;0.50;;
17504;SDS011;8870;50.950;11.762;2023-08-06T16:00:18;2.00;;;0.65;;
17504;SDS011;8870;50.950;11.762;2023-08-06T16:05:52;1.58;;;0.60;;
17504;SDS011;8870;50.950;11.762;2023-08-06T16:11:10;1.38;;;0.50;;
17504;SDS011;8870;50.950;11.762;2023-08-06T16:16:41;0.88;;;0.50;;
17504;SDS011;8870;50.950;11.762;2023-08-06T16:22:03;1.40;;;0.60;;
17504;SDS011;8870;50.950;11.762;2023-08-06T16:27:34;1.02;;;0.50;;
17504;SDS011;8870;50.950;11.762;2023-08-06T16:32:52;0.80;;;0.40;;
17504;SDS011;8870;50.950;11.762;2023-08-06T16:38:27;0.93;;;0.38;;
17504;SDS011;8870;50.950;11.762;2023-08-06T16:43:45;0.55;;;0.38;;
17504;SDS011;8870;50.950;11.762;2023-08-06T16:49:16;1.30;;;0.40;;
17504;SDS011;8870;50.950;11.762;2023-08-06T16:54:38;1.27;;;0.40;;
17504;SDS011;8870;50.950;11.762;2023-08-06T17:00:10;0.77;;;0.30;;
17504;SDS011;8870;50.950;11.762;2023-08-06T17:05:29;1.00;;;0.38;;
17504;SDS011;8870;50.950;11.762;2023-08-06T17:11:03;12.65;;;1.25;;
17504;SDS011;8870;50.950;11.762;2023-08-06T17:16:21;5.13;;;1.00;;
17504;SDS011;8870;50.950;11.762;2023-08-06T17:21:52;3.45;;;1.20;;
17504;SDS011;8870;50.950;11.762;2023-08-06T17:27:13;2.17;;;0.90;;
17504;SDS011;8870;50.950;11.762;2023-08-06T17:32:45;2.28;;;0.60;;
17504;SDS011;8870;50.950;11.762;2023-08-06T17:38:03;3.30;;;0.50;;
17504;SDS011;8870;50.950;11.762;2023-08-06T17:43:37;0.75;;;0.50;;
17504;SDS011;8870;50.950;11.762;2023-08-06T17:48:55;1.02;;;0.38;;
17504;SDS011;8870;50.950;11.762;2023-08-06T17:54:26;2.78;;;0.50;;
17504;SDS011;8870;50.950;11.762;2023-08-06T17:59:47;0.70;;;0.50;;
17504;SDS011;8870;50.950;11.762;2023-08-06T18:05:26;0.57;;;0.35;;
17504;SDS011;8870;50.950;11.762;2023-08-06T18:10:45;2.13;;;0.40;;
17504;SDS011;8870;50.950;11.762;2023-08-06T18:16:19;0.47;;;0.32;;
17504;SDS011;8870;50.950;11.762;2023-08-06T18:21:37;0.65;;;0.40;;
17504;SDS011;8870;50.950;11.762;2023-08-06T18:27:08;1.20;;;0.80;;
17504;SDS011;8870;50.950;11.762;2023-08-06T18:32:34;1.15;;;0.50;;
17504;SDS011;8870;50.950;11.762;2023-08-06T18:38:09;0.40;;;0.40;;
17504;SDS011;8870;50.950;11.762;2023-08-06T18:43:27;1.45;;;0.68;;
17504;SDS011;8870;50.950;11.762;2023-08-06T18:49:01;1.25;;;0.50;;
17504;SDS011;8870;50.950;11.762;2023-08-06T18:54:19;0.77;;;0.50;;
17504;SDS011;8870;50.950;11.762;2023-08-06T18:59:50;1.52;;;0.60;;
17504;SDS011;8870;50.950;11.762;2023-08-06T19:05:11;1.52;;;0.70;;
17504;SDS011;8870;50.950;11.762;2023-08-06T19:10:42;1.52;;;0.68;;
17504;SDS011;8870;50.950;11.762;2023-08-06T19:16:00;0.75;;;0.50;;
17504;SDS011;8870;50.950;11.762;2023-08-06T19:21:34;0.98;;;0.60;;
17504;SDS011;8870;50.950;11.762;2023-08-06T19:26:55;1.53;;;0.80;;
17504;SDS011;8870;50.950;11.762;2023-08-06T19:32:27;0.93;;;0.50;;
17504;SDS011;8870;50.950;11.762;2023-08-06T19:37:48;1.00;;;0.52;;
17504;SDS011;8870;50.950;11.762;2023-08-06T19:43:19;1.45;;;0.57;;
17504;SDS011;8870;50.950;11.762;2023-08-06T19:48:37;1.42;;;0.60;;
17504;SDS011;8870;50.950;11.762;2023-08-06T19:54:11;1.73;;;0.70;;
17504;SDS011;8870;50.950;11.762;2023-08-06T19:59:30;1.58;;;0.60;;
17504;SDS011;8870;50.950;11.762;2023-08-06T20:05:01;1.08;;;0.73;;
17504;SDS011;8870;50.950;11.762;2023-08-06T20:10:22;2.30;;;0.98;;
17504;SDS011;8870;50.950;11.762;2023-08-06T20:15:53;1.98;;;1.00;;
17504;SDS011;8870;50.950;11.762;2023-08-06T20:21:11;1.65;;;0.90;;
17504;SDS011;8870;50.950;11.762;2023-08-06T20:26:45;1.38;;;0.80;;
17504;SDS011;8870;50.950;11.762;2023-08-06T20:32:04;1.60;;;0.90;;
17504;SDS011;8870;50.950;11.762;2023-08-06T20:37:35;2.08;;;0.90;;
17504;SDS011;8870;50.950;11.762;2023-08-06T20:42:56;0.80;;;0.80;;
17504;SDS011;8870;50.950;11.762;2023-08-06T20:48:27;1.17;;;0.93;;
17504;SDS011;8870;50.950;11.762;2023-08-06T20:53:52;1.63;;;0.90;;
17504;SDS011;8870;50.950;11.762;2023-08-06T20:59:26;1.15;;;0.80;;
17504;SDS011;8870;50.950;11.762;2023-08-06T21:04:44;0.95;;;0.70;;
17504;SDS011;8870;50.950;11.762;2023-08-06T21:10:15;2.28;;;0.90;;
17504;SDS011;8870;50.950;11.762;2023-08-06T21:15:36;1.88;;;0.85;;
17504;SDS011;8870;50.950;11.762;2023-08-06T21:21:08;0.70;;;0.70;;
17504;SDS011;8870;50.950;11.762;2023-08-06T21:26:26;1.42;;;0.77;;
17504;SDS011;8870;50.950;11.762;2023-08-06T21:32:00;1.80;;;0.80;;
17504;SDS011;8870;50.950;11.762;2023-08-06T21:37:18;1.15;;;0.93;;
17504;SDS011;8870;50.950;11.762;2023-08-06T21:42:36;0.90;;;0.60;;
17504;SDS011;8870;50.950;11.762;2023-08-06T21:48:10;1.50;;;0.50;;
17504;SDS011;8870;50.950;11.762;2023-08-06T21:53:29;0.52;;;0.52;;
17504;SDS011;8870;50.950;11.762;2023-08-06T21:59:00;0.85;;;0.60;;
17504;SDS011;8870;50.950;11.762;2023-08-06T22:04:21;0.60;;;0.60;;
17504;SDS011;8870;50.950;11.762;2023-08-06T22:09:52;0.65;;;0.55;;
17504;SDS011;8870;50.950;11.762;2023-08-06T22:15:11;0.47;;;0.47;;
17504;SDS011;8870;50.950;11.762;2023-08-06T22:20:45;1.35;;;0.80;;
17504;SDS011;8870;50.950;11.762;2023-08-06T22:26:04;0.68;;;0.50;;
17504;SDS011;8870;50.950;11.762;2023-08-06T22:31:38;1.08;;;0.60;;
17504;SDS011;8870;50.950;11.762;2023-08-06T22:36:58;0.50;;;0.50;;
17504;SDS011;8870;50.950;11.762;2023-08-06T22:42:29;2.53;;;0.80;;
17504;SDS011;8870;50.950;11.762;2023-08-06T22:47:47;1.17;;;0.70;;
17504;SDS011;8870;50.950;11.762;2023-08-06T22:53:21;1.27;;;0.70;;
17504;SDS011;8870;50.950;11.762;2023-08-06T22:58:39;0.65;;;0.65;;
17504;SDS011;8870;50.950;11.762;2023-08-06T23:04:11;1.23;;;0.60;;
17504;SDS011;8870;50.950;11.762;2023-08-06T23:09:32;1.08;;;0.70;;
17504;SDS011;8870;50.950;11.762;2023-08-06T23:15:06;1.10;;;0.50;;
17504;SDS011;8870;50.950;11.762;2023-08-06T23:20:25;1.42;;;0.60;;
17504;SDS011;8870;50.950;11.762;2023-08-06T23:25:59;1.17;;;0.50;;
17504;SDS011;8870;50.950;11.762;2023-08-06T23:31:18;1.48;;;0.70;;
17504;SDS011;8870;50.950;11.762;2023-08-06T23:36:48;1.38;;;0.60;;
17504;SDS011;8870;50.950;11.762;2023-08-06T23:42:09;1.58;;;0.60;;
17504;SDS011;8870;50.950;11.762;2023-08-06T23:47:40;0.52;;;0.50;;
17504;SDS011;8870;50.950;11.762;2023-08-06T23:52:59;1.67;;;0.70;;
17504;SDS011;8870;50.950;11.762;2023-08-06T23:58:32;0.80;;;0.73;;
